AAL1192 KSAN-KSFO
Flight info
| Callsign | AAL1192 |
|---|---|
| Flight time | 1h 4m |
| Altitude | 36000 |
| Route | PADRZ2 IKAYE RIZIN SPLNT STOKD SERFR SERFR4 |
| Aircraft | A319/M-SDE3FGHIRWY/LB1 |
Departure
| Time | 2026-04-21 03:30 |
|---|---|
| Airport | San Diego International Airport (KSAN) |
Arrival
| Time | 2026-04-21 04:34 |
|---|---|
| Airport | San Francisco International Airport (KSFO) |
| Time | Latitude | Longitude | Altitude | Speed | Heading |
|---|---|---|---|---|---|
| 2026-04-21 03:06 | 32.73335 | -117.20177 | 15 ft | 0 kts | 86° |
| 2026-04-21 03:14 | 32.73335 | -117.20184 | 24 ft | 4 kts | 87° |
| 2026-04-21 03:14 | 32.73333 | -117.20216 | 24 ft | 4 kts | 86° |
| 2026-04-21 03:14 | 32.73330 | -117.20247 | 28 ft | 4 kts | 65° |
| 2026-04-21 03:15 | 32.73319 | -117.20262 | 25 ft | 1 kts | 344° |
| 2026-04-21 03:15 | 32.73319 | -117.20261 | 25 ft | 0 kts | 344° |
| 2026-04-21 03:17 | 32.73320 | -117.20262 | 25 ft | 1 kts | 343° |
| 2026-04-21 03:17 | 32.73338 | -117.20268 | 26 ft | 4 kts | 343° |
| 2026-04-21 03:18 | 32.73377 | -117.20278 | 24 ft | 7 kts | 357° |
| 2026-04-21 03:18 | 32.73430 | -117.20265 | 25 ft | 8 kts | 16° |
| 2026-04-21 03:18 | 32.73479 | -117.20248 | 25 ft | 0 kts | 16° |
| 2026-04-21 03:19 | 32.73482 | -117.20247 | 25 ft | 2 kts | 16° |
| 2026-04-21 03:19 | 32.73533 | -117.20219 | 26 ft | 13 kts | 46° |
| 2026-04-21 03:20 | 32.73530 | -117.20109 | 29 ft | 15 kts | 106° |
| 2026-04-21 03:20 | 32.73500 | -117.19988 | 26 ft | 16 kts | 106° |
| 2026-04-21 03:20 | 32.73469 | -117.19859 | 28 ft | 17 kts | 106° |
| 2026-04-21 03:20 | 32.73436 | -117.19719 | 27 ft | 19 kts | 106° |
| 2026-04-21 03:21 | 32.73399 | -117.19566 | 27 ft | 20 kts | 105° |
| 2026-04-21 03:21 | 32.73362 | -117.19405 | 31 ft | 21 kts | 106° |
| 2026-04-21 03:21 | 32.73316 | -117.19227 | 23 ft | 23 kts | 107° |
| 2026-04-21 03:21 | 32.73276 | -117.19064 | 25 ft | 19 kts | 106° |
| 2026-04-21 03:22 | 32.73238 | -117.18908 | 28 ft | 20 kts | 106° |
| 2026-04-21 03:22 | 32.73199 | -117.18750 | 28 ft | 20 kts | 106° |
| 2026-04-21 03:22 | 32.73158 | -117.18583 | 27 ft | 22 kts | 106° |
| 2026-04-21 03:22 | 32.73114 | -117.18398 | 26 ft | 24 kts | 106° |
| 2026-04-21 03:23 | 32.73068 | -117.18204 | 24 ft | 25 kts | 105° |
| 2026-04-21 03:23 | 32.73018 | -117.17996 | 20 ft | 26 kts | 106° |
| 2026-04-21 03:23 | 32.72980 | -117.17844 | 20 ft | 14 kts | 106° |
| 2026-04-21 03:23 | 32.72956 | -117.17746 | 21 ft | 7 kts | 106° |
| 2026-04-21 03:24 | 32.72954 | -117.17738 | 20 ft | 0 kts | 106° |
| 2026-04-21 03:24 | 32.72953 | -117.17733 | 20 ft | 1 kts | 107° |
| 2026-04-21 03:24 | 32.72949 | -117.17717 | 20 ft | 5 kts | 102° |
| 2026-04-21 03:24 | 32.72955 | -117.17660 | 20 ft | 7 kts | 76° |
| 2026-04-21 03:25 | 32.72970 | -117.17607 | 22 ft | 6 kts | 63° |
| 2026-04-21 03:25 | 32.73005 | -117.17587 | 23 ft | 6 kts | 352° |
| 2026-04-21 03:25 | 32.73029 | -117.17621 | 22 ft | 0 kts | 287° |
| 2026-04-21 03:29 | 32.73030 | -117.17625 | 22 ft | 2 kts | 287° |
| 2026-04-21 03:29 | 32.73079 | -117.17822 | 22 ft | 63 kts | 286° |
| 2026-04-21 03:29 | 32.73269 | -117.18591 | 25 ft | 129 kts | 285° |
| 2026-04-21 03:29 | 32.73550 | -117.19756 | 388 ft | 147 kts | 287° |
| 2026-04-21 03:30 | 32.73764 | -117.20521 | 893 ft | 145 kts | 293° |
| 2026-04-21 03:30 | 32.74551 | -117.21822 | 1705 ft | 149 kts | 306° |
| 2026-04-21 03:30 | 32.74967 | -117.22517 | 2037 ft | 158 kts | 304° |
| 2026-04-21 03:30 | 32.75611 | -117.23676 | 2440 ft | 179 kts | 302° |
| 2026-04-21 03:31 | 32.76314 | -117.25010 | 2798 ft | 203 kts | 302° |
| 2026-04-21 03:31 | 32.77105 | -117.26514 | 3246 ft | 227 kts | 302° |
| 2026-04-21 03:31 | 32.77977 | -117.28170 | 3742 ft | 251 kts | 301° |
| 2026-04-21 03:31 | 32.78938 | -117.29977 | 4495 ft | 264 kts | 302° |
| 2026-04-21 03:32 | 32.79940 | -117.31832 | 5453 ft | 269 kts | 302° |
| 2026-04-21 03:32 | 32.81039 | -117.33657 | 6420 ft | 275 kts | 305° |
| 2026-04-21 03:32 | 32.82213 | -117.35476 | 7300 ft | 280 kts | 306° |
| 2026-04-21 03:32 | 32.83429 | -117.37319 | 8195 ft | 286 kts | 306° |
| 2026-04-21 03:33 | 32.84664 | -117.39190 | 9086 ft | 291 kts | 306° |
| 2026-04-21 03:33 | 32.85920 | -117.41106 | 9966 ft | 296 kts | 305° |
| 2026-04-21 03:33 | 32.87213 | -117.43091 | 10446 ft | 314 kts | 305° |
| 2026-04-21 03:33 | 32.88595 | -117.45233 | 10748 ft | 339 kts | 305° |
| 2026-04-21 03:34 | 32.90073 | -117.47534 | 11006 ft | 362 kts | 305° |
| 2026-04-21 03:34 | 32.91630 | -117.49962 | 11550 ft | 373 kts | 305° |
| 2026-04-21 03:34 | 32.93216 | -117.52429 | 12303 ft | 377 kts | 304° |
| 2026-04-21 03:34 | 32.94819 | -117.54919 | 13096 ft | 381 kts | 304° |
| 2026-04-21 03:35 | 32.96437 | -117.57435 | 13882 ft | 384 kts | 304° |
| 2026-04-21 03:35 | 32.98066 | -117.59971 | 14565 ft | 388 kts | 304° |
| 2026-04-21 03:35 | 32.99712 | -117.62539 | 15207 ft | 392 kts | 304° |
| 2026-04-21 03:35 | 33.01379 | -117.65143 | 15840 ft | 397 kts | 303° |
| 2026-04-21 03:36 | 33.03060 | -117.67775 | 16472 ft | 402 kts | 303° |
| 2026-04-21 03:36 | 33.04767 | -117.70447 | 17106 ft | 408 kts | 303° |
| 2026-04-21 03:36 | 33.06597 | -117.73069 | 17751 ft | 417 kts | 310° |
| 2026-04-21 03:36 | 33.08776 | -117.75404 | 18413 ft | 425 kts | 316° |
| 2026-04-21 03:37 | 33.11040 | -117.77695 | 18997 ft | 429 kts | 316° |
| 2026-04-21 03:37 | 33.13297 | -117.79982 | 19575 ft | 433 kts | 316° |
| 2026-04-21 03:37 | 33.15596 | -117.82320 | 20135 ft | 436 kts | 316° |
| 2026-04-21 03:37 | 33.17906 | -117.84674 | 20678 ft | 439 kts | 316° |
| 2026-04-21 03:38 | 33.20213 | -117.87072 | 21200 ft | 441 kts | 314° |
| 2026-04-21 03:38 | 33.22455 | -117.89581 | 21719 ft | 443 kts | 312° |
| 2026-04-21 03:38 | 33.24642 | -117.92183 | 22221 ft | 445 kts | 311° |
| 2026-04-21 03:38 | 33.26810 | -117.94847 | 22712 ft | 448 kts | 310° |
| 2026-04-21 03:39 | 33.28974 | -117.97533 | 23191 ft | 450 kts | 310° |
| 2026-04-21 03:39 | 33.31162 | -118.00232 | 23661 ft | 454 kts | 311° |
| 2026-04-21 03:39 | 33.33381 | -118.02931 | 24062 ft | 456 kts | 311° |
| 2026-04-21 03:39 | 33.35625 | -118.05624 | 24484 ft | 458 kts | 311° |
| 2026-04-21 03:40 | 33.37889 | -118.08316 | 24910 ft | 460 kts | 312° |
| 2026-04-21 03:40 | 33.40165 | -118.11014 | 25333 ft | 461 kts | 311° |
| 2026-04-21 03:40 | 33.42442 | -118.13722 | 25743 ft | 462 kts | 311° |
| 2026-04-21 03:40 | 33.44719 | -118.16443 | 26155 ft | 463 kts | 311° |
| 2026-04-21 03:41 | 33.46998 | -118.19178 | 26547 ft | 465 kts | 311° |
| 2026-04-21 03:41 | 33.49280 | -118.21925 | 26939 ft | 466 kts | 311° |
| 2026-04-21 03:41 | 33.51566 | -118.24684 | 27321 ft | 467 kts | 311° |
| 2026-04-21 03:41 | 33.53855 | -118.27446 | 27699 ft | 468 kts | 311° |
| 2026-04-21 03:42 | 33.56155 | -118.30217 | 28069 ft | 469 kts | 311° |
| 2026-04-21 03:42 | 33.58450 | -118.32983 | 28609 ft | 467 kts | 311° |
| 2026-04-21 03:42 | 33.60737 | -118.35739 | 29135 ft | 464 kts | 311° |
| 2026-04-21 03:42 | 33.63007 | -118.38478 | 29701 ft | 461 kts | 310° |
| 2026-04-21 03:43 | 33.65257 | -118.41197 | 30243 ft | 459 kts | 310° |
| 2026-04-21 03:43 | 33.67501 | -118.43912 | 30695 ft | 457 kts | 310° |
| 2026-04-21 03:43 | 33.69732 | -118.46615 | 31101 ft | 456 kts | 310° |
| 2026-04-21 03:43 | 33.71966 | -118.49326 | 31494 ft | 456 kts | 310° |
| 2026-04-21 03:44 | 33.74196 | -118.52036 | 31880 ft | 456 kts | 310° |
| 2026-04-21 03:44 | 33.76429 | -118.54748 | 32274 ft | 456 kts | 309° |
| 2026-04-21 03:44 | 33.78664 | -118.57459 | 32657 ft | 457 kts | 309° |
| 2026-04-21 03:44 | 33.80898 | -118.60168 | 33047 ft | 457 kts | 309° |
| 2026-04-21 03:45 | 33.83135 | -118.62886 | 33431 ft | 457 kts | 309° |
| 2026-04-21 03:45 | 33.85373 | -118.65608 | 33815 ft | 458 kts | 309° |
| 2026-04-21 03:45 | 33.87609 | -118.68334 | 34177 ft | 458 kts | 309° |
| 2026-04-21 03:45 | 33.89846 | -118.71066 | 34520 ft | 458 kts | 308° |
| 2026-04-21 03:46 | 33.92083 | -118.73797 | 34883 ft | 458 kts | 308° |
| 2026-04-21 03:46 | 33.94287 | -118.76488 | 35251 ft | 457 kts | 309° |
| 2026-04-21 03:46 | 33.96544 | -118.79243 | 35612 ft | 456 kts | 309° |
| 2026-04-21 03:46 | 33.98768 | -118.81964 | 35955 ft | 456 kts | 309° |
| 2026-04-21 03:47 | 34.03226 | -118.87429 | 36069 ft | 459 kts | 309° |
| 2026-04-21 03:47 | 34.07689 | -118.92896 | 36064 ft | 460 kts | 309° |
| 2026-04-21 03:48 | 34.12183 | -118.98404 | 36049 ft | 461 kts | 309° |
| 2026-04-21 03:48 | 34.16067 | -119.04416 | 36047 ft | 450 kts | 296° |
| 2026-04-21 03:49 | 34.19371 | -119.10846 | 36061 ft | 451 kts | 296° |
| 2026-04-21 03:49 | 34.22686 | -119.17269 | 36061 ft | 450 kts | 296° |
| 2026-04-21 03:50 | 34.25992 | -119.23689 | 36068 ft | 449 kts | 296° |
| 2026-04-21 03:50 | 34.29286 | -119.30103 | 36073 ft | 449 kts | 296° |
| 2026-04-21 03:51 | 34.32565 | -119.36514 | 36075 ft | 448 kts | 296° |
| 2026-04-21 03:51 | 34.35839 | -119.42916 | 36081 ft | 447 kts | 296° |
| 2026-04-21 03:52 | 34.39098 | -119.49311 | 36078 ft | 446 kts | 296° |
| 2026-04-21 03:52 | 34.42819 | -119.55353 | 36073 ft | 454 kts | 309° |
| 2026-04-21 03:53 | 34.47269 | -119.60786 | 36069 ft | 454 kts | 309° |
| 2026-04-21 03:53 | 34.51697 | -119.66234 | 36065 ft | 453 kts | 309° |
| 2026-04-21 03:54 | 34.56080 | -119.71645 | 36067 ft | 452 kts | 309° |
| 2026-04-21 03:54 | 34.60484 | -119.77089 | 36069 ft | 452 kts | 309° |
| 2026-04-21 03:55 | 34.64881 | -119.82531 | 36068 ft | 451 kts | 309° |
| 2026-04-21 03:55 | 34.69276 | -119.87974 | 36069 ft | 451 kts | 309° |
| 2026-04-21 03:56 | 34.73667 | -119.93420 | 36069 ft | 450 kts | 309° |
| 2026-04-21 03:56 | 34.78048 | -119.98864 | 36066 ft | 450 kts | 308° |
| 2026-04-21 03:57 | 34.82425 | -120.04307 | 36063 ft | 450 kts | 308° |
| 2026-04-21 03:57 | 34.86794 | -120.09752 | 36067 ft | 450 kts | 308° |
| 2026-04-21 03:58 | 34.91163 | -120.15204 | 36068 ft | 450 kts | 308° |
| 2026-04-21 03:58 | 34.95532 | -120.20657 | 36068 ft | 450 kts | 308° |
| 2026-04-21 03:59 | 34.99895 | -120.26120 | 36063 ft | 450 kts | 308° |
| 2026-04-21 04:00 | 35.06412 | -120.34305 | 36060 ft | 450 kts | 308° |
| 2026-04-21 04:00 | 35.10820 | -120.39755 | 36062 ft | 452 kts | 310° |
| 2026-04-21 04:01 | 35.15473 | -120.44969 | 36052 ft | 455 kts | 312° |
| 2026-04-21 04:01 | 35.20204 | -120.50109 | 36057 ft | 455 kts | 312° |
| 2026-04-21 04:02 | 35.24890 | -120.55306 | 36054 ft | 455 kts | 311° |
| 2026-04-21 04:02 | 35.29542 | -120.60561 | 36069 ft | 455 kts | 310° |
| 2026-04-21 04:03 | 35.34192 | -120.65816 | 36065 ft | 455 kts | 310° |
| 2026-04-21 04:03 | 35.38844 | -120.71068 | 36070 ft | 455 kts | 310° |
| 2026-04-21 04:04 | 35.43488 | -120.76322 | 36069 ft | 454 kts | 310° |
| 2026-04-21 04:04 | 35.48139 | -120.81559 | 36076 ft | 456 kts | 313° |
| 2026-04-21 04:05 | 35.53218 | -120.86323 | 36077 ft | 459 kts | 316° |
| 2026-04-21 04:05 | 35.58320 | -120.91045 | 36079 ft | 459 kts | 316° |
| 2026-04-21 04:06 | 35.63416 | -120.95785 | 36066 ft | 459 kts | 316° |
| 2026-04-21 04:06 | 35.68471 | -121.00501 | 36068 ft | 459 kts | 316° |
| 2026-04-21 04:07 | 35.73567 | -121.05251 | 36058 ft | 459 kts | 316° |
| 2026-04-21 04:07 | 35.78660 | -121.10007 | 36050 ft | 459 kts | 316° |
| 2026-04-21 04:08 | 35.83744 | -121.14742 | 36049 ft | 458 kts | 315° |
| 2026-04-21 04:08 | 35.88822 | -121.19513 | 36040 ft | 459 kts | 315° |
| 2026-04-21 04:09 | 35.93896 | -121.24290 | 36030 ft | 459 kts | 315° |
| 2026-04-21 04:09 | 35.98981 | -121.29074 | 36025 ft | 460 kts | 315° |
| 2026-04-21 04:10 | 36.04074 | -121.33855 | 36019 ft | 460 kts | 315° |
| 2026-04-21 04:10 | 36.06630 | -121.36244 | 35867 ft | 463 kts | 317° |
| 2026-04-21 04:10 | 36.09348 | -121.38422 | 35618 ft | 467 kts | 321° |
| 2026-04-21 04:10 | 36.12101 | -121.40569 | 34884 ft | 471 kts | 321° |
| 2026-04-21 04:11 | 36.14894 | -121.42747 | 33983 ft | 477 kts | 321° |
| 2026-04-21 04:11 | 36.17717 | -121.44954 | 32976 ft | 481 kts | 321° |
| 2026-04-21 04:11 | 36.20552 | -121.47171 | 31960 ft | 483 kts | 321° |
| 2026-04-21 04:11 | 36.23373 | -121.49379 | 30874 ft | 489 kts | 320° |
| 2026-04-21 04:12 | 36.26306 | -121.51680 | 29684 ft | 496 kts | 320° |
| 2026-04-21 04:12 | 36.29238 | -121.53980 | 28377 ft | 501 kts | 320° |
| 2026-04-21 04:12 | 36.32160 | -121.56273 | 27088 ft | 506 kts | 321° |
| 2026-04-21 04:12 | 36.35145 | -121.58619 | 25759 ft | 510 kts | 321° |
| 2026-04-21 04:13 | 36.38152 | -121.60982 | 24741 ft | 510 kts | 321° |
| 2026-04-21 04:13 | 36.41105 | -121.63284 | 24520 ft | 491 kts | 321° |
| 2026-04-21 04:13 | 36.43940 | -121.65482 | 24410 ft | 471 kts | 321° |
| 2026-04-21 04:13 | 36.46663 | -121.67597 | 24290 ft | 453 kts | 320° |
| 2026-04-21 04:14 | 36.49292 | -121.69652 | 24095 ft | 440 kts | 320° |
| 2026-04-21 04:14 | 36.51847 | -121.71673 | 23763 ft | 434 kts | 320° |
| 2026-04-21 04:14 | 36.54384 | -121.73701 | 23235 ft | 432 kts | 320° |
| 2026-04-21 04:14 | 36.56898 | -121.75713 | 22743 ft | 428 kts | 320° |
| 2026-04-21 04:15 | 36.59398 | -121.77710 | 22155 ft | 426 kts | 320° |
| 2026-04-21 04:15 | 36.61891 | -121.79693 | 21599 ft | 424 kts | 321° |
| 2026-04-21 04:15 | 36.64325 | -121.81760 | 20608 ft | 425 kts | 312° |
| 2026-04-21 04:15 | 36.66345 | -121.84438 | 19751 ft | 431 kts | 303° |
| 2026-04-21 04:16 | 36.68312 | -121.87410 | 19364 ft | 456 kts | 302° |
| 2026-04-21 04:16 | 36.70293 | -121.90434 | 18987 ft | 444 kts | 302° |
| 2026-04-21 04:16 | 36.72225 | -121.93372 | 18618 ft | 432 kts | 302° |
| 2026-04-21 04:16 | 36.74111 | -121.96237 | 18248 ft | 423 kts | 302° |
| 2026-04-21 04:17 | 36.75961 | -121.99038 | 17827 ft | 413 kts | 302° |
| 2026-04-21 04:17 | 36.77772 | -122.01763 | 17402 ft | 403 kts | 303° |
| 2026-04-21 04:17 | 36.79840 | -122.04113 | 16992 ft | 405 kts | 322° |
| 2026-04-21 04:17 | 36.82420 | -122.05527 | 16582 ft | 409 kts | 343° |
| 2026-04-21 04:18 | 36.85249 | -122.05833 | 16177 ft | 410 kts | 5° |
| 2026-04-21 04:18 | 36.88054 | -122.05242 | 15776 ft | 408 kts | 12° |
| 2026-04-21 04:18 | 36.90828 | -122.04518 | 15388 ft | 406 kts | 12° |
| 2026-04-21 04:18 | 36.93549 | -122.03800 | 15000 ft | 404 kts | 11° |
| 2026-04-21 04:19 | 36.96330 | -122.03572 | 14610 ft | 398 kts | 354° |
| 2026-04-21 04:19 | 36.99074 | -122.03924 | 14230 ft | 396 kts | 351° |
| 2026-04-21 04:19 | 37.01804 | -122.04304 | 13730 ft | 394 kts | 351° |
| 2026-04-21 04:19 | 37.04564 | -122.04696 | 12926 ft | 400 kts | 351° |
| 2026-04-21 04:20 | 37.07273 | -122.05081 | 12642 ft | 386 kts | 351° |
| 2026-04-21 04:20 | 37.09910 | -122.05454 | 12168 ft | 378 kts | 351° |
| 2026-04-21 04:20 | 37.11671 | -122.05701 | 11804 ft | 375 kts | 351° |
| 2026-04-21 04:20 | 37.14251 | -122.06062 | 11277 ft | 370 kts | 351° |
| 2026-04-21 04:21 | 37.16760 | -122.06415 | 10759 ft | 366 kts | 351° |
| 2026-04-21 04:21 | 37.19274 | -122.06770 | 10271 ft | 361 kts | 351° |
| 2026-04-21 04:21 | 37.21761 | -122.07122 | 9775 ft | 357 kts | 351° |
| 2026-04-21 04:21 | 37.24213 | -122.07466 | 9201 ft | 352 kts | 351° |
| 2026-04-21 04:22 | 37.26640 | -122.07809 | 8826 ft | 345 kts | 350° |
| 2026-04-21 04:22 | 37.28889 | -122.08481 | 8698 ft | 323 kts | 339° |
| 2026-04-21 04:22 | 37.31010 | -122.09289 | 8428 ft | 315 kts | 344° |
| 2026-04-21 04:22 | 37.33187 | -122.09344 | 8080 ft | 314 kts | 8° |
| 2026-04-21 04:23 | 37.35317 | -122.08810 | 7726 ft | 312 kts | 12° |
| 2026-04-21 04:23 | 37.37430 | -122.08228 | 7382 ft | 310 kts | 13° |
| 2026-04-21 04:23 | 37.39527 | -122.07644 | 7041 ft | 308 kts | 12° |
| 2026-04-21 04:23 | 37.41612 | -122.07060 | 6699 ft | 305 kts | 13° |
| 2026-04-21 04:24 | 37.43675 | -122.06486 | 6349 ft | 302 kts | 13° |
| 2026-04-21 04:24 | 37.45626 | -122.05593 | 5965 ft | 297 kts | 34° |
| 2026-04-21 04:24 | 37.47064 | -122.03811 | 5586 ft | 288 kts | 61° |
| 2026-04-21 04:24 | 37.48057 | -122.01640 | 5168 ft | 285 kts | 66° |
| 2026-04-21 04:25 | 37.48966 | -121.99434 | 4763 ft | 282 kts | 70° |
| 2026-04-21 04:25 | 37.49321 | -121.97110 | 4542 ft | 261 kts | 99° |
| 2026-04-21 04:25 | 37.48779 | -121.95064 | 4397 ft | 238 kts | 130° |
| 2026-04-21 04:25 | 37.47580 | -121.93819 | 4281 ft | 217 kts | 162° |
| 2026-04-21 04:26 | 37.46155 | -121.93683 | 4133 ft | 203 kts | 195° |
| 2026-04-21 04:26 | 37.44951 | -121.94498 | 3896 ft | 202 kts | 222° |
| 2026-04-21 04:26 | 37.44224 | -121.96007 | 3599 ft | 208 kts | 252° |
| 2026-04-21 04:26 | 37.44419 | -121.97820 | 3289 ft | 221 kts | 297° |
| 2026-04-21 04:27 | 37.45527 | -121.99199 | 3067 ft | 227 kts | 319° |
| 2026-04-21 04:27 | 37.46505 | -122.00700 | 3046 ft | 221 kts | 289° |
| 2026-04-21 04:27 | 37.47090 | -122.02490 | 3027 ft | 222 kts | 292° |
| 2026-04-21 04:27 | 37.47814 | -122.04216 | 3039 ft | 223 kts | 294° |
| 2026-04-21 04:28 | 37.48551 | -122.05933 | 3040 ft | 223 kts | 294° |
| 2026-04-21 04:28 | 37.49282 | -122.07650 | 3040 ft | 222 kts | 294° |
| 2026-04-21 04:28 | 37.50006 | -122.09357 | 3023 ft | 216 kts | 294° |
| 2026-04-21 04:28 | 37.50690 | -122.10969 | 3031 ft | 202 kts | 293° |
| 2026-04-21 04:29 | 37.51338 | -122.12503 | 3034 ft | 196 kts | 293° |
| 2026-04-21 04:29 | 37.51973 | -122.14005 | 3034 ft | 193 kts | 293° |
| 2026-04-21 04:29 | 37.52603 | -122.15497 | 3039 ft | 193 kts | 292° |
| 2026-04-21 04:29 | 37.53233 | -122.16990 | 3035 ft | 193 kts | 292° |
| 2026-04-21 04:30 | 37.53865 | -122.18486 | 2940 ft | 193 kts | 292° |
| 2026-04-21 04:30 | 37.54496 | -122.19979 | 2741 ft | 192 kts | 292° |
| 2026-04-21 04:30 | 37.55121 | -122.21460 | 2498 ft | 191 kts | 293° |
| 2026-04-21 04:30 | 37.55742 | -122.22932 | 2260 ft | 190 kts | 293° |
| 2026-04-21 04:31 | 37.56361 | -122.24400 | 2015 ft | 189 kts | 294° |
| 2026-04-21 04:31 | 37.56972 | -122.25850 | 1786 ft | 184 kts | 294° |
| 2026-04-21 04:31 | 37.57562 | -122.27249 | 1526 ft | 177 kts | 295° |
| 2026-04-21 04:31 | 37.58123 | -122.28581 | 1307 ft | 167 kts | 294° |
| 2026-04-21 04:32 | 37.58653 | -122.29846 | 1083 ft | 158 kts | 295° |
| 2026-04-21 04:32 | 37.59154 | -122.31038 | 863 ft | 154 kts | 295° |
| 2026-04-21 04:32 | 37.59657 | -122.32237 | 554 ft | 154 kts | 297° |
| 2026-04-21 04:32 | 37.60130 | -122.33397 | 381 ft | 144 kts | 296° |
| 2026-04-21 04:33 | 37.60591 | -122.34498 | 250 ft | 141 kts | 297° |
| 2026-04-21 04:33 | 37.61056 | -122.35584 | 101 ft | 140 kts | 297° |
| 2026-04-21 04:33 | 37.61509 | -122.36647 | 21 ft | 128 kts | 298° |
| 2026-04-21 04:33 | 37.61867 | -122.37488 | 19 ft | 85 kts | 298° |
| 2026-04-21 04:34 | 37.61996 | -122.37863 | 23 ft | 17 kts | 262° |
| 2026-04-21 04:34 | 37.61974 | -122.37922 | 23 ft | 7 kts | 234° |
| 2026-04-21 04:34 | 37.61938 | -122.37974 | 22 ft | 9 kts | 224° |
| 2026-04-21 04:34 | 37.61882 | -122.37993 | 21 ft | 9 kts | 173° |
| 2026-04-21 04:35 | 37.61818 | -122.37971 | 20 ft | 10 kts | 161° |
| 2026-04-21 04:35 | 37.61740 | -122.37952 | 19 ft | 13 kts | 180° |
| 2026-04-21 04:35 | 37.61648 | -122.37979 | 16 ft | 15 kts | 199° |
| 2026-04-21 04:35 | 37.61548 | -122.38042 | 17 ft | 17 kts | 208° |
| 2026-04-21 04:36 | 37.61446 | -122.38111 | 17 ft | 16 kts | 207° |
| 2026-04-21 04:36 | 37.61343 | -122.38179 | 17 ft | 17 kts | 208° |
| 2026-04-21 04:36 | 37.61241 | -122.38248 | 18 ft | 16 kts | 207° |
| 2026-04-21 04:36 | 37.61149 | -122.38309 | 19 ft | 15 kts | 208° |
| 2026-04-21 04:37 | 37.61061 | -122.38370 | 18 ft | 14 kts | 208° |
| 2026-04-21 04:37 | 37.60981 | -122.38431 | 20 ft | 12 kts | 213° |
| 2026-04-21 04:37 | 37.60915 | -122.38495 | 21 ft | 12 kts | 228° |
| 2026-04-21 04:37 | 37.60902 | -122.38598 | 18 ft | 13 kts | 288° |
| 2026-04-21 04:38 | 37.60941 | -122.38694 | 17 ft | 13 kts | 298° |
| 2026-04-21 04:38 | 37.60984 | -122.38789 | 18 ft | 12 kts | 300° |
| 2026-04-21 04:38 | 37.61031 | -122.38850 | 18 ft | 9 kts | 351° |
| 2026-04-21 04:38 | 37.61086 | -122.38822 | 18 ft | 9 kts | 31° |
| 2026-04-21 04:39 | 37.61134 | -122.38783 | 19 ft | 7 kts | 46° |
| 2026-04-21 04:39 | 37.61132 | -122.38720 | 20 ft | 7 kts | 123° |
| 2026-04-21 04:39 | 37.61107 | -122.38675 | 17 ft | 1 kts | 114° |